Time;durP1;ratioP1;P1;durP2;ratioP2;P2;SDS_P1;SDS_P2;PMS_P1;PMS_P2;Temp;Humidity;BMP_temperature;BMP_pressure;BME280_temperature;BME280_humidity;BME280_pressure;Samples;Min_cycle;Max_cycle;Signal;HPM_P1;HPM_P2
2023/10/13 00:00:47;;;;;;;;;10.33;6.00;;;;;19.98;100.00;101207.41;5077802;28;46132;-73
2023/10/13 00:03:16;;;;;;;;;4.33;4.33;;;;;19.92;100.00;101207.03;5058375;28;45311;-74
2023/10/13 00:05:42;;;;;;;;;5.00;5.00;;;;;20.06;100.00;101222.88;5079942;28;45375;-74
2023/10/13 00:08:09;;;;;;;;;6.00;5.00;;;;;20.02;100.00;101222.31;5053501;28;45368;-73
2023/10/13 00:10:34;;;;;;;;;8.00;5.67;;;;;20.07;100.00;101205.81;5058446;28;45493;-74
2023/10/13 00:13:13;;;;;;;;;4.67;4.00;;;;;19.97;100.00;101203.00;5076469;28;45294;-73
2023/10/13 00:15:57;;;;;;;;;8.00;5.00;;;;;20.10;100.00;101230.59;5061765;28;45488;-74
2023/10/13 00:18:41;;;;;;;;;7.00;6.00;;;;;19.94;100.00;101183.59;5054062;28;45648;-73
2023/10/13 00:21:15;;;;;;;;;6.67;6.00;;;;;20.01;100.00;101196.41;5060506;28;47015;-74
2023/10/13 00:23:52;;;;;;;;;7.33;6.33;;;;;20.11;100.00;101209.97;5075171;28;45344;-74
2023/10/13 00:26:18;;;;;;;;;6.00;4.00;;;;;20.11;100.00;101197.38;5076729;28;45428;-74
2023/10/13 00:28:46;;;;;;;;;8.00;6.00;;;;;20.11;100.00;101205.44;5071955;28;45304;-74
2023/10/13 00:31:13;;;;;;;;;5.33;5.33;;;;;20.12;100.00;101203.63;5055832;28;47967;-75
2023/10/13 00:33:41;;;;;;;;;5.00;5.00;;;;;20.12;100.00;101203.63;5078975;28;45372;-74
2023/10/13 00:36:08;;;;;;;;;5.00;5.00;;;;;20.11;100.00;101201.91;5074713;28;45581;-74
2023/10/13 00:38:35;;;;;;;;;6.33;4.33;;;;;20.14;100.00;101204.34;5076750;28;45380;-74
2023/10/13 00:41:14;;;;;;;;;4.33;4.00;;;;;20.15;100.00;101206.91;5054436;28;47542;-74
2023/10/13 00:46:34;;;;;;;;;5.67;5.67;;;;;20.23;100.00;101200.91;5087339;27;45343;-74
2023/10/13 00:49:01;;;;;;;;;7.67;6.33;;;;;20.15;100.00;101171.13;5072654;28;45384;-73
2023/10/13 00:51:34;;;;;;;;;6.67;5.00;;;;;20.09;100.00;101164.41;5075158;28;45501;-74
2023/10/13 00:54:10;;;;;;;;;4.67;4.67;;;;;20.24;100.00;101182.00;5071279;28;45375;-73
2023/10/13 00:56:46;;;;;;;;;10.33;6.67;;;;;20.21;100.00;101182.25;5084804;27;45380;-73
2023/10/13 00:59:13;;;;;;;;;10.67;8.00;;;;;20.11;100.00;101162.47;5055164;28;45235;-74
2023/10/13 01:01:42;;;;;;;;;5.33;5.00;;;;;19.99;100.00;101144.66;5083064;27;45573;-74
2023/10/13 01:04:08;;;;;;;;;8.00;7.00;;;;;20.15;100.00;101171.13;5079354;28;45418;-74
2023/10/13 01:06:34;;;;;;;;;7.33;6.00;;;;;20.06;100.00;101161.13;5072134;28;45503;-74
2023/10/13 01:09:12;;;;;;;;;5.00;5.00;;;;;20.16;100.00;101170.13;5072652;28;45470;-74
2023/10/13 01:11:45;;;;;;;;;5.67;4.33;;;;;19.83;100.00;101109.28;5054045;28;47529;-74
2023/10/13 01:14:17;;;;;;;;;11.00;4.67;;;;;20.11;100.00;101157.09;5081039;28;45238;-74
2023/10/13 01:16:46;;;;;;;;;6.00;5.00;;;;;20.15;100.00;101160.41;5060213;28;45423;-74
2023/10/13 01:19:35;;;;;;;;;6.00;5.33;;;;;20.15;100.00;101165.78;5073757;28;45450;-75
2023/10/13 01:22:05;;;;;;;;;7.67;6.00;;;;;20.14;100.00;101159.53;5081947;27;45420;-75
2023/10/13 01:24:31;;;;;;;;;8.00;4.67;;;;;20.12;100.00;101160.66;5089084;27;45477;-74
2023/10/13 01:26:57;;;;;;;;;7.00;6.00;;;;;20.19;100.00;101167.19;5049770;28;45458;-74
2023/10/13 01:29:29;;;;;;;;;8.67;7.00;;;;;20.07;100.00;101142.22;5060688;28;45482;-75
2023/10/13 01:31:54;;;;;;;;;6.00;6.00;;;;;20.20;100.00;101166.22;5074162;28;45407;-74
2023/10/13 01:34:23;;;;;;;;;6.00;6.00;;;;;20.08;100.00;101132.31;5075549;28;45585;-74
2023/10/13 01:36:53;;;;;;;;;8.33;7.67;;;;;20.18;100.00;101157.47;5049885;28;45487;-75
2023/10/13 01:39:20;;;;;;;;;8.67;5.67;;;;;20.09;100.00;101136.72;5071960;28;45340;-75
2023/10/13 01:41:46;;;;;;;;;7.00;6.00;;;;;19.96;100.00;101114.53;5061718;28;45401;-75
2023/10/13 01:44:15;;;;;;;;;5.00;5.00;;;;;20.11;100.00;101141.00;5080458;28;45257;-75
2023/10/13 01:46:42;;;;;;;;;8.00;7.00;;;;;20.06;100.00;101139.63;5072894;28;45336;-74
2023/10/13 01:49:08;;;;;;;;;10.33;8.00;;;;;20.04;100.00;101139.78;5053471;28;45597;-75
2023/10/13 01:51:34;;;;;;;;;4.00;3.00;;;;;20.00;100.00;101129.41;5044449;28;47231;-75
2023/10/13 01:54:04;;;;;;;;;8.33;5.67;;;;;19.98;100.00;101126.84;5074938;27;45487;-74
2023/10/13 01:56:30;;;;;;;;;8.67;7.00;;;;;19.78;100.00;101087.34;5079352;27;45285;-74
2023/10/13 01:58:55;;;;;;;;;9.67;6.00;;;;;19.94;100.00;101116.47;5066196;28;45387;-75
2023/10/13 02:01:26;;;;;;;;;8.00;8.00;;;;;19.92;100.00;101107.72;5073020;28;46317;-74
2023/10/13 02:04:03;;;;;;;;;8.67;5.00;;;;;19.76;100.00;101094.69;5071595;28;45478;-74
2023/10/13 02:06:33;;;;;;;;;11.33;8.00;;;;;19.84;100.00;101110.16;5068283;28;45384;-74
2023/10/13 02:11:41;;;;;;;;;7.67;7.67;;;;;19.74;100.00;101093.94;5076292;28;45457;-74
2023/10/13 02:14:07;;;;;;;;;9.33;7.33;;;;;19.75;100.00;101082.22;5045138;28;45854;-74
2023/10/13 02:16:32;;;;;;;;;8.33;8.33;;;;;19.71;100.00;101078.06;5059446;28;45297;-74
2023/10/13 02:19:03;;;;;;;;;6.00;6.00;;;;;19.66;100.00;101066.88;5049133;28;45309;-74
2023/10/13 02:21:31;;;;;;;;;8.67;7.33;;;;;19.65;100.00;101068.69;5070935;28;47007;-74
2023/10/13 02:24:02;;;;;;;;;7.00;7.00;;;;;19.62;100.00;101063.59;5062997;28;45523;-73
2023/10/13 02:26:30;;;;;;;;;9.33;7.00;;;;;19.51;100.00;101052.00;5048035;28;45359;-74
2023/10/13 02:29:04;;;;;;;;;14.00;6.00;;;;;19.53;100.00;101050.06;5062189;28;45563;-74
2023/10/13 02:31:30;;;;;;;;;5.67;2.67;;;;;19.46;100.00;101038.09;5068124;28;46571;-74
2023/10/13 02:33:55;;;;;;;;;10.33;8.67;;;;;19.48;100.00;101050.41;5068158;28;45459;-74
2023/10/13 02:36:36;;;;;;;;;8.00;7.67;;;;;19.45;100.00;101047.13;5051791;28;45555;-74
2023/10/13 02:39:07;;;;;;;;;8.00;8.00;;;;;19.30;100.00;101035.78;5069036;28;45275;-74
2023/10/13 02:41:36;;;;;;;;;12.67;10.00;;;;;19.36;100.00;101053.19;5063205;28;45362;-74
2023/10/13 02:44:05;;;;;;;;;9.67;8.00;;;;;19.23;100.00;101035.41;5045571;28;45486;-74
2023/10/13 02:46:31;;;;;;;;;9.67;8.00;;;;;19.22;100.00;101055.16;5079273;28;45354;-74
2023/10/13 02:48:57;;;;;;;;;8.33;7.00;;;;;19.15;100.00;101037.81;5050645;28;45363;-74
2023/10/13 02:51:35;;;;;;;;;11.33;8.00;;;;;19.20;100.00;101049.06;5060851;28;45476;-74
2023/10/13 02:54:02;;;;;;;;;9.33;9.00;;;;;19.17;100.00;101054.63;5064197;28;45281;-75
2023/10/13 02:56:29;;;;;;;;;7.67;7.67;;;;;19.00;100.00;101035.50;5076462;28;45304;-75
2023/10/13 02:58:56;;;;;;;;;12.33;10.00;;;;;19.09;100.00;101057.09;5060600;28;45332;-75
2023/10/13 03:01:26;;;;;;;;;13.00;11.67;;;;;18.97;100.00;101038.44;5060918;28;45387;-74
2023/10/13 03:03:54;;;;;;;;;7.67;7.67;;;;;19.00;100.00;101043.56;5051804;28;45407;-74
2023/10/13 03:06:23;;;;;;;;;10.33;8.00;;;;;18.96;100.00;101034.88;5051924;28;45604;-73
2023/10/13 03:08:48;;;;;;;;;11.33;9.67;;;;;18.87;100.00;101024.91;5070715;28;45354;-75
2023/10/13 03:11:14;;;;;;;;;11.33;11.00;;;;;18.87;100.00;101018.69;5071177;28;46152;-74
2023/10/13 03:13:44;;;;;;;;;11.33;7.67;;;;;18.81;100.00;101008.44;5074044;28;45351;-74
2023/10/13 03:16:16;;;;;;;;;10.33;7.67;;;;;18.66;100.00;100984.53;5057280;28;45375;-74
2023/10/13 03:18:56;;;;;;;;;9.33;7.33;;;;;18.75;100.00;100993.66;5064459;28;46388;-75
2023/10/13 03:21:31;;;;;;;;;12.67;10.33;;;;;18.84;100.00;101011.75;5056655;28;47561;-75
2023/10/13 03:24:07;;;;;;;;;8.33;8.33;;;;;18.76;100.00;101000.75;5071146;28;45442;-75
2023/10/13 03:26:37;;;;;;;;;10.00;8.00;;;;;18.82;100.00;100989.53;5055798;28;45490;-74
2023/10/13 03:29:06;;;;;;;;;9.33;7.67;;;;;18.78;100.00;100985.44;5060445;28;45712;-74
2023/10/13 03:31:36;;;;;;;;;9.00;8.00;;;;;18.81;100.00;100984.31;5067887;28;45682;-74
2023/10/13 03:34:03;;;;;;;;;18.00;9.67;;;;;18.83;100.00;100967.13;5055729;28;45520;-74
2023/10/13 03:39:13;;;;;;;;;10.00;9.00;;;;;18.90;100.00;100981.78;5077980;28;45376;-74
2023/10/13 03:41:40;;;;;;;;;14.33;10.33;;;;;18.93;100.00;100968.13;5062760;28;46449;-74
2023/10/13 03:44:13;;;;;;;;;11.33;8.33;;;;;18.93;100.00;100968.13;5049531;28;45376;-74
2023/10/13 03:46:40;;;;;;;;;15.67;8.33;;;;;18.96;100.00;100969.69;5072113;28;45285;-74
2023/10/13 03:49:08;;;;;;;;;9.00;8.00;;;;;18.95;100.00;100963.47;5071875;28;45553;-74
2023/10/13 03:51:36;;;;;;;;;12.33;10.33;;;;;18.85;100.00;100933.03;5054347;28;45355;-74
2023/10/13 03:54:07;;;;;;;;;13.00;9.00;;;;;18.99;100.00;100956.06;5073834;28;45272;-73
2023/10/13 03:56:39;;;;;;;;;12.00;10.33;;;;;18.97;100.00;100955.34;5056906;27;45405;-75
2023/10/13 04:04:12;;;;;;;;;14.00;9.00;;;;;18.96;100.00;100945.56;5076518;28;45395;-73
2023/10/13 04:15:19;;;;;;;;;12.00;9.67;;;;;19.08;100.00;100944.59;5072644;28;45402;-74
2023/10/13 04:17:28;;;;;;;;;11.67;10.00;;;;;19.01;100.00;100917.41;5065207;28;45491;-73
2023/10/13 04:36:16;;;;;;;;;10.00;8.67;;;;;19.09;100.00;100909.63;5069892;28;45457;-74
2023/10/13 04:41:22;;;;;;;;;8.67;7.33;;;;;19.03;100.00;100874.41;5076356;28;45465;-74
2023/10/13 04:43:56;;;;;;;;;12.00;7.67;;;;;19.12;100.00;100873.66;5059024;28;47556;-74
2023/10/13 04:46:36;;;;;;;;;13.67;9.67;;;;;19.14;100.00;100885.13;5074486;28;45349;-74
2023/10/13 04:49:09;;;;;;;;;11.00;11.00;;;;;19.00;100.00;100845.19;5075693;28;45470;-74
2023/10/13 04:51:58;;;;;;;;;13.33;9.00;;;;;19.10;100.00;100857.72;5055781;28;45519;-74
2023/10/13 04:54:26;;;;;;;;;12.67;10.00;;;;;19.25;100.00;100871.69;5067567;28;46240;-74
2023/10/13 06:29:56;;;;;;;;;15.67;12.67;;;;;19.40;100.00;100838.28;5071562;28;45309;-75
2023/10/13 06:32:26;;;;;;;;;12.33;12.33;;;;;19.42;100.00;100828.25;5056538;28;45384;-74
2023/10/13 06:35:05;;;;;;;;;17.00;12.33;;;;;19.45;100.00;100843.25;5070261;28;45404;-76
2023/10/13 06:37:32;;;;;;;;;14.33;12.33;;;;;19.31;100.00;100822.91;5057717;28;45594;-75
2023/10/13 06:40:05;;;;;;;;;12.00;12.00;;;;;19.45;100.00;100835.19;5064837;28;45529;-75
2023/10/13 06:42:34;;;;;;;;;13.67;11.33;;;;;19.51;100.00;100834.69;5077832;28;46189;-75
2023/10/13 06:45:08;;;;;;;;;15.67;13.33;;;;;19.51;100.00;100832.84;5074811;28;45388;-75
2023/10/13 06:47:39;;;;;;;;;15.67;13.33;;;;;19.44;100.00;100831.66;5075259;28;45403;-75
2023/10/13 06:50:15;;;;;;;;;12.67;10.67;;;;;19.55;100.00;100830.75;5068695;28;45422;-75
2023/10/13 06:52:42;;;;;;;;;14.33;12.67;;;;;19.45;100.00;100819.09;5054150;28;47640;-75
2023/10/13 06:55:10;;;;;;;;;15.33;13.33;;;;;19.55;100.00;100825.41;5074463;28;45466;-75
2023/10/13 06:57:35;;;;;;;;;12.00;12.00;;;;;19.53;100.00;100832.75;5049182;28;45459;-75
2023/10/13 07:00:07;;;;;;;;;12.67;12.33;;;;;19.52;100.00;100842.63;5071351;28;45296;-76
2023/10/13 07:02:33;;;;;;;;;13.33;13.33;;;;;19.60;100.00;100850.03;5050456;28;45580;-74
2023/10/13 07:05:07;;;;;;;;;15.67;13.00;;;;;19.47;100.00;100830.56;5081782;27;45416;-75
2023/10/13 07:07:33;;;;;;;;;13.33;12.33;;;;;19.65;100.00;100850.47;5057369;28;45382;-75
2023/10/13 07:09:58;;;;;;;;;12.33;11.33;;;;;19.52;100.00;100831.03;5064754;28;45651;-75
2023/10/13 07:12:27;;;;;;;;;11.00;10.33;;;;;19.65;100.00;100845.13;5060974;28;45445;-75
2023/10/13 07:14:59;;;;;;;;;14.33;12.00;;;;;19.68;100.00;100840.34;5041739;28;45702;-74
2023/10/13 07:17:25;;;;;;;;;14.33;14.33;;;;;19.70;100.00;100846.41;5066436;28;45339;-75
2023/10/13 07:19:55;;;;;;;;;11.33;10.67;;;;;19.69;100.00;100843.88;5061182;28;45473;-74
2023/10/13 07:22:22;;;;;;;;;15.67;14.00;;;;;19.64;100.00;100832.66;5053735;28;47220;-74
2023/10/13 07:24:50;;;;;;;;;10.67;10.67;;;;;19.77;100.00;100839.56;5059565;28;45526;-75
2023/10/13 07:27:23;;;;;;;;;10.00;10.00;;;;;19.76;100.00;100832.47;5072989;28;45523;-74
2023/10/13 07:30:13;;;;;;;;;15.00;12.00;;;;;19.77;100.00;100830.66;5076314;28;45357;-75
2023/10/13 07:32:45;;;;;;;;;12.33;10.33;;;;;19.79;100.00;100834.06;5069483;28;47034;-74
2023/10/13 07:35:15;;;;;;;;;13.33;12.00;;;;;19.79;100.00;100831.38;5058164;28;45411;-74
2023/10/13 07:37:41;;;;;;;;;12.00;11.67;;;;;19.77;100.00;100831.50;5061894;28;45530;-74
2023/10/13 07:40:22;;;;;;;;;14.67;12.67;;;;;19.84;100.00;100839.88;5056722;28;45867;-74
2023/10/13 07:42:48;;;;;;;;;17.33;14.33;;;;;19.88;95.63;100841.34;5077721;28;45496;-74
2023/10/13 07:45:14;;;;;;;;;14.33;12.67;;;;;19.88;97.72;100829.75;5077825;28;45331;-74
2023/10/13 07:47:39;;;;;;;;;15.00;15.00;;;;;19.84;97.97;100817.56;5046098;28;45314;-75
2023/10/13 07:50:06;;;;;;;;;9.67;9.67;;;;;19.99;96.02;100848.47;5064470;28;45566;-74
2023/10/13 07:52:40;;;;;;;;;13.67;13.00;;;;;19.95;94.83;100831.78;5043722;28;47267;-74
2023/10/13 07:55:13;;;;;;;;;14.67;12.33;;;;;19.99;89.97;100829.69;5062504;28;45388;-74
2023/10/13 07:57:53;;;;;;;;;8.67;7.00;;;;;20.10;95.23;100833.13;5064504;28;45380;-74
2023/10/13 08:00:38;;;;;;;;;11.00;10.33;;;;;20.10;95.59;100832.28;5047261;28;45409;-74
2023/10/13 08:08:37;;;;;;;;;9.33;9.00;;;;;20.24;86.40;100815.81;5064126;28;45382;-74
2023/10/13 08:11:25;;;;;;;;;10.00;10.00;;;;;20.47;85.56;100830.81;5072455;28;45209;-74
2023/10/13 08:16:52;;;;;;;;;14.00;12.33;;;;;20.69;87.50;100835.13;5077239;28;45494;-74
2023/10/13 08:19:31;;;;;;;;;12.67;11.33;;;;;20.81;88.27;100830.53;5078274;28;45517;-74
2023/10/13 08:21:59;;;;;;;;;12.00;8.67;;;;;20.89;83.89;100833.38;5050872;28;45664;-75
2023/10/13 08:25:20;;;;;;;;;18.00;12.33;;;;;20.90;85.65;100814.41;5057456;28;45815;-74
2023/10/13 08:48:07;;;;;;;;;11.00;9.33;;;;;21.52;83.32;100789.88;5069979;28;45222;-74
2023/10/13 08:53:31;;;;;;;;;12.67;10.00;;;;;21.67;83.68;100791.13;5080512;28;45468;-74
2023/10/13 09:09:39;;;;;;;;;8.33;7.00;;;;;21.83;74.58;100761.75;5066935;28;45349;-75
2023/10/13 09:12:11;;;;;;;;;10.00;10.00;;;;;22.04;75.85;100783.16;5063168;28;45448;-74
2023/10/13 09:14:42;;;;;;;;;9.33;8.67;;;;;22.08;72.64;100773.78;5061808;28;45470;-74
2023/10/13 09:19:55;;;;;;;;;10.33;8.67;;;;;22.13;72.48;100762.56;5070021;28;45232;-74
2023/10/13 09:22:35;;;;;;;;;10.00;8.67;;;;;22.17;73.75;100759.44;5070111;28;46042;-74
2023/10/13 09:25:01;;;;;;;;;9.67;9.67;;;;;22.15;74.83;100749.78;5069876;28;45433;-75
2023/10/13 09:27:33;;;;;;;;;10.00;8.00;;;;;22.24;72.54;100770.47;5076127;28;46591;-75
2023/10/13 09:30:18;;;;;;;;;8.00;8.00;;;;;22.19;71.86;100743.94;5066263;28;45517;-75
2023/10/13 09:33:08;;;;;;;;;9.00;9.00;;;;;22.29;71.69;100762.75;5065563;28;45400;-74
2023/10/13 09:35:36;;;;;;;;;10.67;8.00;;;;;22.26;72.94;100741.50;5057823;28;45665;-75
2023/10/13 09:38:03;;;;;;;;;11.00;11.00;;;;;22.43;73.84;100756.91;5079591;28;46272;-75
2023/10/13 09:42:59;;;;;;;;;9.00;9.00;;;;;22.63;70.20;100728.00;5068449;28;45496;-74
2023/10/13 09:45:36;;;;;;;;;9.67;8.00;;;;;22.87;69.73;100751.72;5049144;28;45297;-74
2023/10/13 09:48:06;;;;;;;;;11.67;9.67;;;;;22.93;70.73;100749.25;5062567;28;46325;-75
2023/10/13 09:50:37;;;;;;;;;8.00;7.00;;;;;22.93;69.66;100727.69;5069988;28;45850;-75
2023/10/13 09:53:10;;;;;;;;;8.00;8.00;;;;;23.07;68.07;100734.41;5047970;28;45434;-75
2023/10/13 09:55:44;;;;;;;;;10.00;9.00;;;;;23.30;66.99;100752.63;5055295;28;45308;-74
2023/10/13 09:58:15;;;;;;;;;8.00;8.00;;;;;23.31;67.49;100738.16;5055871;28;46762;-74
2023/10/13 10:00:55;;;;;;;;;6.67;6.33;;;;;23.33;67.49;100740.69;5060733;28;45379;-74
2023/10/13 10:03:39;;;;;;;;;10.33;9.33;;;;;23.32;67.56;100723.66;5069970;28;45531;-75
2023/10/13 10:06:14;;;;;;;;;8.00;8.00;;;;;23.40;67.15;100744.47;5054435;28;45512;-76
2023/10/13 10:08:48;;;;;;;;;10.67;9.33;;;;;23.57;66.03;100731.97;5049512;28;45321;-75
2023/10/13 10:11:25;;;;;;;;;12.33;9.00;;;;;23.76;67.19;100729.91;5073368;28;45304;-74
2023/10/13 10:13:53;;;;;;;;;9.00;8.00;;;;;23.85;65.91;100723.53;5058049;28;45501;-76
2023/10/13 10:16:27;;;;;;;;;11.67;9.00;;;;;23.85;64.97;100709.22;5070049;28;45577;-75
2023/10/13 10:19:01;;;;;;;;;12.00;10.00;;;;;23.88;66.13;100695.38;5063718;28;46337;-74
2023/10/13 10:21:37;;;;;;;;;13.00;10.00;;;;;23.94;64.51;100715.50;5045237;28;45633;-75
2023/10/13 10:24:14;;;;;;;;;11.33;10.00;;;;;23.95;64.86;100717.22;5062567;28;45496;-75
2023/10/13 10:26:53;;;;;;;;;11.67;8.00;;;;;23.66;62.48;100683.25;5070971;28;45483;-76
2023/10/13 10:29:18;;;;;;;;;8.00;8.00;;;;;23.97;64.43;100721.44;5071606;28;46241;-75
2023/10/13 10:31:45;;;;;;;;;8.33;8.33;;;;;23.99;64.65;100700.50;5041079;28;45353;-75
2023/10/13 10:34:21;;;;;;;;;9.00;9.00;;;;;24.04;65.55;100706.28;5059917;28;45578;-76
2023/10/13 10:36:53;;;;;;;;;10.67;9.00;;;;;24.17;63.47;100719.38;5054132;28;45468;-76
2023/10/13 10:39:19;;;;;;;;;9.33;9.00;;;;;24.10;63.25;100705.63;5079371;28;45388;-76
2023/10/13 10:44:15;;;;;;;;;9.33;8.67;;;;;24.16;63.93;100713.13;5064229;28;45433;-75
2023/10/13 10:46:51;;;;;;;;;7.00;7.00;;;;;24.16;61.50;100713.13;5060768;28;45419;-75
2023/10/13 10:49:27;;;;;;;;;7.67;7.67;;;;;24.28;62.42;100719.06;5058636;28;46310;-76
2023/10/13 10:51:58;;;;;;;;;11.00;8.33;;;;;24.15;61.50;100697.91;5066955;28;45386;-75
2023/10/13 10:54:29;;;;;;;;;9.00;9.00;;;;;24.32;61.04;100713.19;5069520;28;45350;-76
2023/10/13 10:56:56;;;;;;;;;9.67;8.33;;;;;24.32;60.63;100704.22;5065960;28;45448;-76
2023/10/13 10:59:25;;;;;;;;;10.00;8.67;;;;;24.33;60.57;100706.78;5071254;28;45409;-76
2023/10/13 11:01:53;;;;;;;;;9.33;8.33;;;;;24.36;62.04;100705.59;5071567;28;45468;-75
2023/10/13 11:04:33;;;;;;;;;9.00;9.00;;;;;24.34;61.07;100696.81;5070110;27;45529;-74
2023/10/13 11:06:59;;;;;;;;;10.33;9.67;;;;;24.45;61.57;100709.16;5057850;28;45460;-74
2023/10/13 11:11:53;;;;;;;;;9.00;8.00;;;;;24.52;58.54;100705.66;5063744;28;46631;-76
2023/10/13 11:14:23;;;;;;;;;9.33;9.33;;;;;24.53;61.64;100695.69;5076574;27;45423;-76
2023/10/13 11:16:50;;;;;;;;;11.00;9.33;;;;;24.69;60.72;100690.31;5078731;28;45367;-76
2023/10/13 11:19:25;;;;;;;;;10.33;10.33;;;;;24.74;59.40;100699.63;5063371;28;45573;-75
2023/10/13 11:21:57;;;;;;;;;10.00;9.00;;;;;24.86;60.84;100686.69;5063151;28;45416;-76
2023/10/13 11:24:22;;;;;;;;;9.00;8.00;;;;;24.92;59.69;100693.25;5074767;27;45494;-76
2023/10/13 11:26:53;;;;;;;;;9.33;9.33;;;;;24.97;60.50;100686.31;5058688;28;45949;-76
2023/10/13 11:29:19;;;;;;;;;11.00;9.00;;;;;25.08;60.14;100679.75;5076359;28;47121;-76
2023/10/13 11:31:58;;;;;;;;;7.67;6.00;;;;;25.15;59.32;100676.22;5057336;28;45542;-76
2023/10/13 11:34:24;;;;;;;;;9.67;9.67;;;;;25.32;58.58;100672.50;5073422;28;45554;-75
2023/10/13 11:36:50;;;;;;;;;9.67;8.67;;;;;25.27;58.97;100649.63;5070253;27;45575;-76
2023/10/13 11:39:32;;;;;;;;;8.00;6.33;;;;;25.31;58.49;100656.41;5077787;28;45391;-76
2023/10/13 11:41:58;;;;;;;;;8.67;7.33;;;;;25.37;57.14;100661.13;5076602;28;45437;-76
2023/10/13 11:44:23;;;;;;;;;9.67;8.00;;;;;25.32;58.14;100674.34;5073506;28;45346;-76
2023/10/13 11:46:55;;;;;;;;;9.67;8.00;;;;;25.24;59.12;100661.66;5055237;28;45625;-75
2023/10/13 11:54:48;;;;;;;;;9.33;8.00;;;;;24.90;60.08;100638.50;5049343;28;45238;-75
2023/10/13 11:57:16;;;;;;;;;8.00;8.00;;;;;25.02;58.83;100662.34;5066836;28;45433;-75
2023/10/13 11:59:46;;;;;;;;;10.33;7.67;;;;;25.01;59.78;100655.22;5060890;28;45797;-76
2023/10/13 12:04:54;;;;;;;;;11.33;10.00;;;;;25.09;58.87;100660.66;5070275;27;45474;-76
2023/10/13 12:07:23;;;;;;;;;9.00;9.00;;;;;25.10;59.45;100629.84;5057729;28;45501;-76
2023/10/13 12:12:30;;;;;;;;;7.33;6.33;;;;;25.44;59.78;100629.63;5076885;28;45250;-76
2023/10/13 12:14:56;;;;;;;;;9.67;8.67;;;;;25.56;58.39;100638.25;5056922;28;45368;-76
2023/10/13 12:17:34;;;;;;;;;12.33;7.00;;;;;25.48;59.46;100609.31;5054846;28;45558;-75
2023/10/13 12:20:05;;;;;;;;;9.00;8.00;;;;;25.69;59.04;100633.16;5063069;28;45548;-75
2023/10/13 12:22:42;;;;;;;;;7.00;7.00;;;;;25.65;59.12;100626.41;5053867;28;45669;-76
2023/10/13 12:28:06;;;;;;;;;8.00;6.00;;;;;25.77;57.18;100620.44;5072892;28;45281;-75
2023/10/13 12:30:50;;;;;;;;;9.33;9.00;;;;;25.74;56.85;100606.41;5056296;28;48103;-76
2023/10/13 12:33:24;;;;;;;;;8.00;8.00;;;;;25.79;58.79;100594.00;5068631;28;45411;-76
2023/10/13 12:36:03;;;;;;;;;8.00;8.00;;;;;25.60;59.61;100571.91;5049275;28;45299;-75
2023/10/13 12:38:37;;;;;;;;;10.33;9.33;;;;;25.82;57.92;100587.38;5053687;28;45550;-76
2023/10/13 12:49:38;;;;;;;;;9.33;7.33;;;;;26.08;60.68;100593.38;5062386;28;45566;-75
2023/10/13 12:52:03;;;;;;;;;9.33;9.00;;;;;26.22;57.04;100578.25;5064477;28;45878;-77
2023/10/13 12:54:35;;;;;;;;;10.33;9.00;;;;;26.14;58.54;100564.72;5059869;28;45419;-76
2023/10/13 12:57:01;;;;;;;;;8.67;8.67;;;;;26.20;59.73;100591.16;5074906;28;45451;-76
2023/10/13 12:59:26;;;;;;;;;18.67;14.33;;;;;26.18;57.59;100583.19;5077376;28;45527;-77
2023/10/13 13:01:53;;;;;;;;;13.00;13.00;;;;;26.14;57.91;100571.00;5064610;28;45747;-76
2023/10/13 13:04:20;;;;;;;;;19.00;16.00;;;;;25.89;56.60;100534.19;5067143;27;45337;-76
2023/10/13 13:06:50;;;;;;;;;17.67;16.67;;;;;25.79;56.71;100534.41;5062307;28;45454;-75
2023/10/13 13:09:25;;;;;;;;;16.67;13.33;;;;;26.08;56.92;100597.97;5064877;28;45547;-75
2023/10/13 13:11:51;;;;;;;;;19.00;15.00;;;;;25.97;59.78;100576.66;5060202;28;46159;-76
2023/10/13 13:14:17;;;;;;;;;15.33;14.00;;;;;25.90;57.48;100581.94;5072062;28;45565;-76
2023/10/13 13:16:47;;;;;;;;;12.67;12.67;;;;;25.87;59.52;100583.16;5061770;28;45344;-75
2023/10/13 13:19:14;;;;;;;;;11.00;9.00;;;;;25.79;58.53;100585.88;5056902;28;45506;-75
2023/10/13 13:21:39;;;;;;;;;11.00;9.33;;;;;25.75;59.03;100572.88;5054654;28;46687;-75
2023/10/13 13:24:15;;;;;;;;;9.33;9.33;;;;;25.75;57.08;100578.28;5072821;28;45226;-76
2023/10/13 13:26:40;;;;;;;;;11.00;10.33;;;;;25.67;57.97;100556.63;5062405;28;45961;-75
2023/10/13 13:29:09;;;;;;;;;11.00;8.67;;;;;25.65;58.81;100564.97;5065869;28;45409;-76
2023/10/13 13:31:40;;;;;;;;;11.33;9.00;;;;;25.60;59.09;100563.78;5070678;28;45562;-76
2023/10/13 13:34:09;;;;;;;;;8.67;8.67;;;;;25.41;59.46;100529.78;5060593;28;45374;-75
2023/10/13 13:36:35;;;;;;;;;10.67;9.00;;;;;25.23;59.34;100518.31;5049223;28;45392;-76
2023/10/13 13:39:01;;;;;;;;;10.00;10.00;;;;;25.40;58.60;100549.75;5053312;28;45408;-76
2023/10/13 13:41:27;;;;;;;;;9.33;9.33;;;;;25.16;59.71;100517.34;5043765;28;46591;-76
2023/10/13 13:43:55;;;;;;;;;9.67;8.33;;;;;25.17;60.38;100532.56;5071741;28;45296;-76
2023/10/13 13:46:32;;;;;;;;;8.00;8.00;;;;;25.16;60.54;100544.41;5074569;28;45346;-76
2023/10/13 13:48:59;;;;;;;;;9.67;8.33;;;;;25.08;60.74;100531.75;5064300;28;45588;-75
2023/10/13 13:51:32;;;;;;;;;7.67;7.00;;;;;24.97;60.47;100532.09;5059431;28;45393;-75
2023/10/13 13:53:58;;;;;;;;;8.00;8.00;;;;;24.93;60.87;100547.00;5073617;28;45537;-75
2023/10/13 13:56:28;;;;;;;;;8.00;7.67;;;;;24.84;60.57;100534.47;5061064;28;45495;-76
2023/10/13 13:58:55;;;;;;;;;10.00;10.00;;;;;24.81;60.31;100543.75;5069748;28;45340;-74
2023/10/13 14:01:21;;;;;;;;;12.33;8.33;;;;;24.81;59.24;100545.59;5056559;28;45517;-75
2023/10/13 14:03:52;;;;;;;;;10.33;8.00;;;;;24.76;61.07;100534.47;5075049;27;45555;-76
2023/10/13 14:06:26;;;;;;;;;10.33;9.00;;;;;24.67;61.19;100521.97;5097774;27;45406;-76
2023/10/13 14:08:57;;;;;;;;;12.33;8.00;;;;;24.71;60.77;100532.25;5070064;28;45371;-73
2023/10/13 14:16:51;;;;;;;;;7.33;7.00;;;;;24.57;61.60;100513.16;5077789;28;45225;-76
2023/10/13 14:19:19;;;;;;;;;7.00;7.00;;;;;24.53;62.24;100511.81;5068973;28;45230;-76
2023/10/13 14:21:53;;;;;;;;;7.33;7.00;;;;;24.36;64.14;100489.31;5058533;28;45559;-76
2023/10/13 14:24:27;;;;;;;;;9.00;9.00;;;;;24.37;62.30;100501.84;5055826;28;45368;-76
2023/10/13 14:26:53;;;;;;;;;13.00;9.00;;;;;24.33;62.52;100498.63;5048358;28;45456;-76
2023/10/13 14:29:18;;;;;;;;;12.33;8.33;;;;;23.93;62.91;100449.03;5072305;28;45567;-75
2023/10/13 14:31:43;;;;;;;;;12.67;8.67;;;;;24.24;62.78;100496.09;5058912;28;45285;-77
2023/10/13 14:34:10;;;;;;;;;9.33;8.00;;;;;24.29;62.90;100508.06;5053277;28;45588;-75
2023/10/13 14:36:35;;;;;;;;;9.67;8.33;;;;;24.21;62.39;100513.47;5064745;28;45481;-76
2023/10/13 14:39:02;;;;;;;;;6.67;5.33;;;;;24.18;63.03;100494.88;5051774;28;45584;-76
2023/10/13 14:41:27;;;;;;;;;10.00;8.33;;;;;24.19;64.63;100506.53;5047289;28;46802;-75
2023/10/13 14:43:56;;;;;;;;;9.00;9.00;;;;;24.09;63.33;100486.91;5052856;28;45566;-76
2023/10/13 14:46:24;;;;;;;;;13.00;11.00;;;;;24.12;62.51;100506.34;5062866;28;45292;-76
2023/10/13 14:48:53;;;;;;;;;10.33;9.33;;;;;24.12;64.15;100502.81;5068453;28;45473;-75
2023/10/13 14:51:19;;;;;;;;;12.00;9.00;;;;;24.09;64.71;100506.66;5059216;28;45339;-76
2023/10/13 14:53:45;;;;;;;;;9.00;6.33;;;;;24.09;63.98;100508.50;5079659;28;45311;-75
2023/10/13 14:56:11;;;;;;;;;15.33;8.00;;;;;24.05;64.71;100499.06;5069844;28;45337;-76
2023/10/13 14:58:42;;;;;;;;;12.33;10.00;;;;;23.96;62.63;100489.22;5063991;28;45507;-76
2023/10/13 15:01:17;;;;;;;;;11.67;9.00;;;;;23.95;63.09;100484.88;5073712;28;46643;-76
2023/10/13 15:03:47;;;;;;;;;16.00;11.33;;;;;24.04;65.16;100489.25;5074416;28;45455;-76
2023/10/13 15:06:20;;;;;;;;;11.67;11.00;;;;;24.07;64.08;100495.19;5048388;28;45435;-76